Aviation Digital Data Service (ADDS)

Output produced by METARs form (0449 UTC 24 January 2019)
found at http://www.aviationweather.gov/metar/data/
 
Forecast for: KABQ (ALBUQUERQUE , NM, US)
Text: KABQ 232320Z 2400/2424 26008KT P6SM FEW250
Forecast period: 0000 to 0500 UTC 24 January 2019
Forecast type: FROM: standard forecast or significant change
Winds: from the W (260 degrees) at 9 MPH (8 knots; 4.1 m/s)
Visibility: 6 or more miles 10+ km)
Ceiling: at least 12,000 feet AGL
Clouds: few clouds at 25000 feet AGL
Weather: no significant weather forecast for this period
Text: TEMPO 2400/2402 30011G17KT
Forecast period: 0000 to 0200 UTC 24 January 2019
Forecast type: TEMPORARY: The following changes expected for less than half the time period
Winds: from the WNW (300 degrees) at 13 MPH (11 knots; 5.7 m/s)
gusting to 20 MPH (17 knots; 8.7 m/s)
Visibility: missing
Ceiling: unknown
Clouds: missing
Weather: no significant weather forecast for this period
Text: FM240500 35009KT P6SM SKC
Forecast period: 0500 UTC 24 January 2019 to 0000 UTC 25 January 2019
Forecast type: FROM: standard forecast or significant change
Winds: from the N (350 degrees) at 10 MPH (9 knots; 4.6 m/s)
Visibility: 6 or more miles 10+ km)
Clouds: clear skies
Weather: no significant weather forecast for this period